Copperas Cove, Texas
Current Conditions -  °F | °C
As of 9:32 PM on Saturday 22 Nov 2014 (Local Time) from KHLR Reporting Station
Thunderstorm Thunderstorm  
Wind Chill: 59°   Ceiling: 3400
Heat Index: 59°   Visibility: 8mi
Dew Point: 55°   Wind: 14mph
Humidity: 88%   Direction: 340°NNW
Pressure: 29.81"   Gusts: 22mph
Location:  31.12°N, 97.9°W
Report Text: KHLR 230332Z AUTO 34012G19KT 8SM -TSRA FEW012 BKN034 OVC080 15/13 A2981 RMK AO2 PK WND 31033/0304 TSE08B17RAB06 P0014 $
Loading
Personal Weather Stations






























Interactive Weather Map New forecast layout! Learn more

10-Day Weather Forecast

Advertisements
Track Severe Weather on mobile